Time;durP1;ratioP1;P1;durP2;ratioP2;P2;SDS_P1;SDS_P2;PMS_P1;PMS_P2;Temp;Humidity;BMP_temperature;BMP_pressure;BME280_temperature;BME280_humidity;BME280_pressure;Samples;Min_cycle;Max_cycle;Signal;HPM_P1;HPM_P2
2023/07/21 00:01:53;;;;;;;5.38;3.53;;;14.90;99.90;;;;;;5046434;28;20513;-60
2023/07/21 00:04:20;;;;;;;7.00;3.50;;;14.90;99.90;;;;;;5027045;28;20084;-58
2023/07/21 00:06:46;;;;;;;5.32;3.63;;;14.80;99.90;;;;;;5029002;28;20045;-59
2023/07/21 00:09:12;;;;;;;6.78;3.50;;;14.80;99.90;;;;;;5026029;28;20048;-59
2023/07/21 00:11:39;;;;;;;5.32;3.72;;;14.80;99.90;;;;;;5047676;28;20045;-58
2023/07/21 00:14:10;;;;;;;7.13;3.92;;;14.70;99.90;;;;;;5007266;28;20440;-58
2023/07/21 00:16:35;;;;;;;6.25;4.15;;;14.70;99.90;;;;;;5026791;28;20049;-58
2023/07/21 00:19:01;;;;;;;6.97;3.88;;;14.70;99.90;;;;;;5009491;28;21564;-58
2023/07/21 00:21:28;;;;;;;10.82;3.47;;;14.70;99.90;;;;;;5011114;28;20407;-58
2023/07/21 00:23:54;;;;;;;7.47;3.67;;;14.60;99.90;;;;;;5029668;28;20134;-58
2023/07/21 00:26:20;;;;;;;5.88;3.42;;;14.60;99.90;;;;;;5013546;28;20048;-58
2023/07/21 00:28:46;;;;;;;4.45;3.10;;;14.60;99.90;;;;;;5026566;28;20042;-59
2023/07/21 00:31:11;;;;;;;4.75;4.05;;;14.60;99.90;;;;;;5028932;28;20334;-58
2023/07/21 00:33:37;;;;;;;5.40;4.07;;;14.60;99.90;;;;;;5017197;28;20052;-58
2023/07/21 00:36:04;;;;;;;6.50;3.80;;;14.50;99.90;;;;;;5030726;28;20563;-58
2023/07/21 00:38:30;;;;;;;7.35;4.50;;;14.50;99.90;;;;;;5022205;28;20365;-58
2023/07/21 00:40:56;;;;;;;6.22;4.38;;;14.40;99.90;;;;;;5028673;28;20510;-59
2023/07/21 00:43:22;;;;;;;6.63;3.83;;;14.40;99.90;;;;;;5032573;28;20040;-58
2023/07/21 00:45:48;;;;;;;6.43;3.78;;;14.30;99.90;;;;;;5026756;28;20040;-58
2023/07/21 00:48:16;;;;;;;5.63;3.85;;;14.30;99.90;;;;;;5030836;28;20113;-59
2023/07/21 00:50:52;;;;;;;7.45;4.10;;;14.30;99.90;;;;;;5019413;28;20217;-56
2023/07/21 00:53:19;;;;;;;6.88;4.47;;;14.20;99.90;;;;;;5006564;28;20036;-58
2023/07/21 00:55:48;;;;;;;5.20;4.20;;;14.10;99.90;;;;;;5019174;28;20033;-54
2023/07/21 00:58:15;;;;;;;7.85;4.15;;;14.10;99.90;;;;;;4996219;28;20042;-56
2023/07/21 01:00:41;;;;;;;6.15;4.47;;;14.00;99.90;;;;;;5012327;28;20192;-57
2023/07/21 01:03:12;;;;;;;7.35;4.63;;;14.00;99.90;;;;;;5027551;28;20040;-58
2023/07/21 01:05:46;;;;;;;6.95;4.05;;;14.00;99.90;;;;;;5030204;28;20179;-56
2023/07/21 01:08:13;;;;;;;7.70;4.60;;;14.00;99.90;;;;;;5006222;28;20040;-55
2023/07/21 01:10:40;;;;;;;6.20;4.28;;;14.00;99.90;;;;;;5026397;28;20037;-59
2023/07/21 01:13:07;;;;;;;7.35;4.38;;;14.00;99.90;;;;;;5009108;28;20103;-58
2023/07/21 01:15:37;;;;;;;5.93;4.38;;;14.00;99.90;;;;;;5011645;28;20408;-59
2023/07/21 01:18:07;;;;;;;5.97;3.92;;;14.00;99.90;;;;;;5024448;28;20041;-57
2023/07/21 01:20:33;;;;;;;6.32;4.35;;;14.00;99.90;;;;;;5028176;28;20087;-57
2023/07/21 01:23:13;;;;;;;5.95;3.97;;;14.00;99.90;;;;;;5012387;28;20041;-57
2023/07/21 01:25:42;;;;;;;8.38;4.75;;;14.10;99.90;;;;;;5017477;28;20690;-56
2023/07/21 01:28:12;;;;;;;5.00;4.13;;;14.10;99.90;;;;;;5026850;28;20045;-58
2023/07/21 01:30:39;;;;;;;5.25;3.58;;;14.00;99.90;;;;;;5008948;28;20033;-58
2023/07/21 01:33:07;;;;;;;5.65;3.55;;;13.90;99.90;;;;;;5029745;28;20036;-58
2023/07/21 01:35:34;;;;;;;5.90;4.07;;;13.90;99.90;;;;;;5004227;28;20029;-59
2023/07/21 01:38:01;;;;;;;5.47;3.92;;;13.80;99.90;;;;;;5042318;28;20502;-56
2023/07/21 01:40:27;;;;;;;4.80;3.55;;;13.70;99.90;;;;;;5023273;28;20038;-59
2023/07/21 01:42:53;;;;;;;7.57;4.68;;;13.70;99.90;;;;;;5009683;28;20045;-59
2023/07/21 01:45:19;;;;;;;5.32;4.22;;;13.70;99.90;;;;;;5023008;28;20183;-58
2023/07/21 01:47:46;;;;;;;5.90;3.90;;;13.60;99.90;;;;;;5029843;28;20444;-56
2023/07/21 01:50:14;;;;;;;5.72;4.50;;;13.60;99.90;;;;;;4997880;28;20243;-58
2023/07/21 01:52:44;;;;;;;8.15;4.43;;;13.60;99.90;;;;;;5013627;28;20041;-56
2023/07/21 01:55:33;;;;;;;6.78;4.22;;;13.50;99.90;;;;;;5026240;28;20040;-59
2023/07/21 01:58:03;;;;;;;5.22;3.38;;;13.50;99.90;;;;;;5059776;28;20048;-57
2023/07/21 02:00:36;;;;;;;4.50;3.50;;;13.50;99.90;;;;;;5025323;28;20041;-58
2023/07/21 02:03:03;;;;;;;;;;;13.50;99.90;;;;;;5027483;28;20072;-58
2023/07/21 02:05:29;;;;;;;9.60;4.38;;;13.50;99.90;;;;;;5020891;28;20419;-56
2023/07/21 02:07:56;;;;;;;6.55;4.05;;;13.50;99.90;;;;;;5006730;28;20041;-56
2023/07/21 02:10:22;;;;;;;8.00;4.20;;;13.40;99.90;;;;;;5010696;28;20037;-57
2023/07/21 02:12:48;;;;;;;6.28;4.07;;;13.40;99.90;;;;;;5025057;28;20304;-58
2023/07/21 02:15:14;;;;;;;6.65;4.60;;;13.40;99.90;;;;;;5027834;28;20190;-58
2023/07/21 02:17:40;;;;;;;6.05;3.90;;;13.30;99.90;;;;;;5024640;28;20071;-57
2023/07/21 02:20:10;;;;;;;7.93;4.30;;;13.30;99.90;;;;;;5025870;28;20103;-58
2023/07/21 02:22:40;;;;;;;8.27;4.55;;;13.30;99.90;;;;;;5027592;28;20095;-58
2023/07/21 02:25:09;;;;;;;8.10;4.55;;;13.30;99.90;;;;;;5025452;28;20098;-57
2023/07/21 02:27:35;;;;;;;6.00;4.03;;;13.30;99.90;;;;;;5026014;28;20342;-58
2023/07/21 02:30:02;;;;;;;5.78;3.70;;;13.20;99.90;;;;;;5008611;28;20063;-58
2023/07/21 02:32:28;;;;;;;5.70;3.60;;;13.20;99.90;;;;;;5026744;28;20052;-58
2023/07/21 02:34:54;;;;;;;6.88;4.93;;;13.20;99.90;;;;;;5023514;28;20120;-58
2023/07/21 02:37:20;;;;;;;7.47;5.38;;;13.20;99.90;;;;;;5025456;28;20057;-56
2023/07/21 02:39:46;;;;;;;6.70;4.75;;;13.20;99.90;;;;;;5026052;28;20140;-56
2023/07/21 02:42:12;;;;;;;7.82;4.95;;;13.20;99.90;;;;;;5027246;28;20559;-57
2023/07/21 02:44:37;;;;;;;5.93;4.70;;;13.10;99.90;;;;;;5010324;28;20167;-59
2023/07/21 02:47:03;;;;;;;7.82;4.90;;;13.10;99.90;;;;;;5026503;28;20048;-57
2023/07/21 02:49:30;;;;;;;8.00;5.40;;;13.10;99.90;;;;;;5017107;28;20052;-57
2023/07/21 02:51:56;;;;;;;6.45;4.93;;;13.10;99.90;;;;;;5025820;28;20396;-57
2023/07/21 02:54:22;;;;;;;8.40;5.32;;;13.10;99.90;;;;;;5012863;28;20041;-57
2023/07/21 02:56:48;;;;;;;7.57;5.47;;;13.10;99.90;;;;;;5023852;28;20079;-55
2023/07/21 02:59:15;;;;;;;8.48;5.13;;;13.10;99.90;;;;;;5016653;28;20045;-56
2023/07/21 03:01:40;;;;;;;7.40;5.57;;;13.10;99.90;;;;;;5029737;28;20041;-56
2023/07/21 03:04:07;;;;;;;7.32;5.07;;;13.10;99.90;;;;;;5041722;28;20110;-56
2023/07/21 03:06:34;;;;;;;9.20;5.25;;;13.20;99.90;;;;;;5026431;28;20041;-58
2023/07/21 03:08:59;;;;;;;8.35;4.95;;;13.10;99.90;;;;;;5023806;28;20028;-57
2023/07/21 03:11:26;;;;;;;6.70;4.60;;;13.10;99.90;;;;;;5030727;28;20108;-56
2023/07/21 03:13:51;;;;;;;11.98;5.25;;;13.20;99.90;;;;;;5043670;28;20033;-59
2023/07/21 03:16:17;;;;;;;7.50;4.72;;;13.10;99.90;;;;;;5024030;28;20033;-59
2023/07/21 03:18:43;;;;;;;6.88;4.63;;;13.10;99.90;;;;;;5056067;28;20516;-58
2023/07/21 03:21:08;;;;;;;8.40;5.75;;;13.10;99.90;;;;;;5021895;28;20063;-58
2023/07/21 03:23:34;;;;;;;7.10;5.07;;;13.10;99.90;;;;;;5023702;28;20527;-57
2023/07/21 03:26:00;;;;;;;7.85;5.40;;;13.10;99.90;;;;;;5011906;28;20053;-58
2023/07/21 03:28:26;;;;;;;6.82;4.50;;;13.10;99.90;;;;;;5032266;28;20048;-59
2023/07/21 03:31:02;;;;;;;8.15;5.82;;;13.00;99.90;;;;;;5015039;28;20176;-58
2023/07/21 03:33:28;;;;;;;8.80;5.28;;;13.10;99.90;;;;;;5013588;28;20034;-58
2023/07/21 03:36:02;;;;;;;7.47;5.22;;;13.00;99.90;;;;;;5004307;28;20433;-58
2023/07/21 03:38:29;;;;;;;7.78;3.90;;;13.10;99.90;;;;;;5025022;28;20099;-58
2023/07/21 03:41:02;;;;;;;10.00;5.53;;;13.00;99.90;;;;;;5006857;28;20052;-58
2023/07/21 03:43:27;;;;;;;7.55;5.15;;;13.00;99.90;;;;;;5024753;28;20163;-58
2023/07/21 03:46:00;;;;;;;7.45;5.90;;;13.00;99.90;;;;;;5009293;28;20182;-59
2023/07/21 03:48:27;;;;;;;7.40;4.95;;;13.00;99.90;;;;;;5007028;28;20044;-57
2023/07/21 03:51:04;;;;;;;5.70;4.22;;;13.00;99.90;;;;;;4974955;28;20519;-58
2023/07/21 03:53:30;;;;;;;7.05;5.15;;;13.00;99.90;;;;;;5030194;28;20041;-56
2023/07/21 03:55:56;;;;;;;7.80;5.18;;;13.00;99.90;;;;;;5007891;28;20111;-58
2023/07/21 03:58:22;;;;;;;6.50;4.82;;;13.00;99.90;;;;;;5023306;28;20480;-57
2023/07/21 04:00:48;;;;;;;7.13;5.20;;;13.00;99.90;;;;;;5007087;28;20033;-58
2023/07/21 04:03:14;;;;;;;6.68;4.40;;;13.00;99.90;;;;;;5020027;28;20126;-58
2023/07/21 04:05:40;;;;;;;9.20;5.72;;;13.00;99.90;;;;;;5006625;28;20041;-55
2023/07/21 04:08:07;;;;;;;9.32;5.40;;;13.00;99.90;;;;;;5004772;28;20283;-58
2023/07/21 04:10:33;;;;;;;8.80;4.72;;;13.00;99.90;;;;;;5021391;28;20041;-56
2023/07/21 04:13:00;;;;;;;8.75;5.70;;;13.00;99.90;;;;;;5027721;28;20084;-55
2023/07/21 04:15:26;;;;;;;7.85;4.68;;;12.90;99.90;;;;;;5024627;28;20565;-55
2023/07/21 04:17:52;;;;;;;8.73;6.00;;;12.90;99.90;;;;;;5028002;28;20092;-57
2023/07/21 04:20:18;;;;;;;7.78;5.50;;;13.00;99.90;;;;;;5024605;28;20036;-57
2023/07/21 04:22:45;;;;;;;7.65;5.22;;;13.00;99.90;;;;;;5045901;28;20049;-57
2023/07/21 04:25:11;;;;;;;8.82;5.95;;;13.00;99.90;;;;;;5008424;28;20079;-56
2023/07/21 04:27:37;;;;;;;7.93;5.75;;;13.10;99.90;;;;;;5025044;28;20515;-55
2023/07/21 04:30:03;;;;;;;8.02;5.38;;;13.10;99.90;;;;;;5027957;28;20407;-57
2023/07/21 04:32:30;;;;;;;6.32;4.40;;;13.10;99.90;;;;;;5025826;28;20091;-57
2023/07/21 04:34:56;;;;;;;7.75;5.13;;;13.10;99.90;;;;;;5027201;28;20049;-57
2023/07/21 04:37:22;;;;;;;7.20;5.35;;;13.10;99.90;;;;;;5046443;28;20102;-57
2023/07/21 04:39:48;;;;;;;7.03;4.40;;;13.10;99.90;;;;;;5023126;28;20384;-56
2023/07/21 04:42:13;;;;;;;7.00;4.90;;;13.20;99.90;;;;;;5026475;28;20040;-57
2023/07/21 04:44:43;;;;;;;8.10;5.80;;;13.20;99.90;;;;;;5031032;28;20565;-56
2023/07/21 04:47:08;;;;;;;8.68;4.57;;;13.30;99.90;;;;;;5003341;28;20042;-57
2023/07/21 04:49:34;;;;;;;7.68;5.68;;;13.30;99.90;;;;;;5010543;28;20384;-56
2023/07/21 04:52:00;;;;;;;8.77;5.05;;;13.30;99.90;;;;;;5046704;28;20037;-57
2023/07/21 04:54:26;;;;;;;8.35;5.72;;;13.40;99.90;;;;;;5022247;28;20589;-57
2023/07/21 04:56:52;;;;;;;7.18;5.35;;;13.40;99.90;;;;;;5038172;28;20033;-56
2023/07/21 04:59:19;;;;;;;8.85;5.60;;;13.50;99.90;;;;;;5022524;28;20048;-57
2023/07/21 05:01:45;;;;;;;9.35;5.95;;;13.50;99.90;;;;;;5008419;28;20087;-56
2023/07/21 05:04:19;;;;;;;8.50;5.95;;;13.50;99.90;;;;;;5016424;28;20091;-55
2023/07/21 05:06:47;;;;;;;7.50;5.28;;;13.60;99.90;;;;;;5043814;28;20111;-57
2023/07/21 05:09:14;;;;;;;9.23;5.72;;;13.60;99.90;;;;;;5009538;28;20033;-55
2023/07/21 05:11:40;;;;;;;9.73;6.35;;;13.60;99.90;;;;;;5024277;28;20477;-57
2023/07/21 05:14:06;;;;;;;10.00;6.07;;;13.70;99.90;;;;;;5029279;28;20047;-57
2023/07/21 05:16:32;;;;;;;9.95;6.00;;;13.70;99.90;;;;;;5039442;28;20459;-57
2023/07/21 05:18:58;;;;;;;6.78;4.95;;;13.70;99.90;;;;;;5016126;28;20032;-56
2023/07/21 05:21:24;;;;;;;8.10;5.80;;;13.80;99.90;;;;;;5012492;28;20497;-57
2023/07/21 05:23:50;;;;;;;9.57;6.07;;;13.80;99.90;;;;;;5042895;28;20457;-58
2023/07/21 05:26:16;;;;;;;8.38;5.75;;;13.90;99.90;;;;;;5020585;28;20059;-57
2023/07/21 05:28:42;;;;;;;8.25;5.97;;;13.90;99.90;;;;;;5027164;28;20400;-56
2023/07/21 05:31:11;;;;;;;8.70;5.75;;;13.90;99.90;;;;;;5027544;28;20056;-56
2023/07/21 05:33:37;;;;;;;12.25;6.55;;;14.00;99.90;;;;;;5025314;28;20099;-57
2023/07/21 05:36:10;;;;;;;7.22;5.15;;;14.00;99.90;;;;;;5041813;28;20063;-58
2023/07/21 05:38:39;;;;;;;7.63;6.28;;;14.00;99.90;;;;;;5023298;28;20483;-57
2023/07/21 05:41:05;;;;;;;8.20;5.97;;;14.10;99.90;;;;;;5016032;28;20047;-57
2023/07/21 05:43:31;;;;;;;8.80;5.68;;;14.20;99.90;;;;;;5029222;28;20053;-57
2023/07/21 05:45:57;;;;;;;8.65;6.20;;;14.30;99.90;;;;;;5024656;28;20041;-57
2023/07/21 05:48:26;;;;;;;12.52;5.43;;;14.40;99.90;;;;;;5024663;28;20088;-56
2023/07/21 05:50:52;;;;;;;8.35;5.13;;;14.40;99.90;;;;;;5025416;28;20395;-56
2023/07/21 05:53:19;;;;;;;6.45;4.72;;;14.60;99.90;;;;;;5025313;28;20033;-56
2023/07/21 05:55:46;;;;;;;9.98;5.75;;;14.70;99.90;;;;;;5025343;28;20557;-57
2023/07/21 05:58:12;;;;;;;7.65;4.85;;;14.80;99.90;;;;;;5026573;28;20049;-57
2023/07/21 06:00:39;;;;;;;8.57;4.68;;;14.90;99.90;;;;;;5029125;28;20045;-57
2023/07/21 06:03:08;;;;;;;7.93;4.85;;;15.10;99.90;;;;;;5026005;28;20479;-56
2023/07/21 06:05:36;;;;;;;7.55;4.72;;;15.20;99.90;;;;;;5008998;28;20044;-58
2023/07/21 06:08:06;;;;;;;8.38;4.50;;;15.30;99.90;;;;;;5021282;28;20041;-57
2023/07/21 06:10:33;;;;;;;7.82;4.80;;;15.40;99.90;;;;;;5023905;28;20115;-56
2023/07/21 06:12:59;;;;;;;8.40;4.82;;;15.50;99.90;;;;;;5003565;28;20122;-57
2023/07/21 06:15:26;;;;;;;9.45;4.82;;;15.60;99.90;;;;;;5027018;28;20040;-56
2023/07/21 06:17:54;;;;;;;7.38;4.43;;;15.80;99.90;;;;;;5040984;28;20476;-56
2023/07/21 06:20:22;;;;;;;6.38;4.13;;;15.90;99.90;;;;;;5024516;28;20053;-58
2023/07/21 06:22:48;;;;;;;6.63;3.50;;;16.00;99.90;;;;;;5024811;28;20108;-58
2023/07/21 06:25:14;;;;;;;7.65;4.07;;;16.20;99.90;;;;;;5032967;28;20048;-57
2023/07/21 06:27:40;;;;;;;5.93;3.88;;;16.30;99.90;;;;;;5017149;28;20050;-58
2023/07/21 06:30:06;;;;;;;5.75;3.30;;;16.50;99.90;;;;;;5021133;28;20064;-58
2023/07/21 06:32:32;;;;;;;7.63;3.58;;;16.70;99.90;;;;;;5003652;28;20045;-58
2023/07/21 06:34:57;;;;;;;5.70;3.45;;;16.80;99.90;;;;;;5022843;28;20075;-57
2023/07/21 06:37:23;;;;;;;6.75;3.45;;;16.90;99.90;;;;;;4999179;28;20037;-56
2023/07/21 06:39:50;;;;;;;7.63;3.33;;;17.00;99.90;;;;;;5020475;28;20048;-57
2023/07/21 06:42:16;;;;;;;6.55;3.70;;;17.00;99.90;;;;;;5002744;28;20049;-57
2023/07/21 06:44:42;;;;;;;6.93;3.50;;;17.10;99.90;;;;;;5018376;28;20052;-56
2023/07/21 06:47:08;;;;;;;5.63;3.45;;;17.10;99.90;;;;;;5021859;28;20503;-57
2023/07/21 06:49:33;;;;;;;6.40;4.07;;;17.00;99.90;;;;;;5021841;28;20056;-57
2023/07/21 06:51:59;;;;;;;6.28;3.83;;;17.10;99.90;;;;;;5032845;28;20041;-58
2023/07/21 06:54:29;;;;;;;7.18;3.40;;;17.10;99.90;;;;;;5020167;28;20059;-58
2023/07/21 06:56:55;;;;;;;5.60;3.53;;;17.20;99.90;;;;;;5019786;28;20040;-58
2023/07/21 06:59:21;;;;;;;4.75;2.83;;;17.30;99.90;;;;;;5022931;28;20052;-57
2023/07/21 07:01:47;;;;;;;4.72;3.05;;;17.30;99.90;;;;;;5024195;28;20480;-57
2023/07/21 07:04:12;;;;;;;3.40;2.70;;;17.30;99.90;;;;;;5021291;28;20076;-57
2023/07/21 07:06:38;;;;;;;3.88;2.70;;;17.30;99.90;;;;;;5023485;28;20072;-57
2023/07/21 07:09:04;;;;;;;5.22;2.67;;;17.40;99.90;;;;;;5049474;28;20055;-57
2023/07/21 07:11:30;;;;;;;5.00;3.00;;;17.40;99.90;;;;;;5021925;28;20937;-58
2023/07/21 07:13:55;;;;;;;5.35;2.85;;;17.50;99.90;;;;;;5021761;28;20094;-58
2023/07/21 07:16:21;;;;;;;4.40;2.80;;;17.60;99.90;;;;;;5026402;28;20128;-58
2023/07/21 07:18:47;;;;;;;3.30;2.35;;;17.70;99.90;;;;;;5038090;28;20553;-58
2023/07/21 07:21:12;;;;;;;4.55;2.65;;;17.80;99.90;;;;;;5038292;28;20049;-56
2023/07/21 07:23:38;;;;;;;3.95;2.55;;;17.90;99.90;;;;;;5018857;28;20037;-58
2023/07/21 07:26:05;;;;;;;2.97;2.00;;;18.00;99.90;;;;;;5012200;28;20041;-58
2023/07/21 07:28:31;;;;;;;4.55;2.17;;;18.00;99.90;;;;;;5021383;28;20110;-57
2023/07/21 07:30:57;;;;;;;3.60;2.33;;;18.00;99.90;;;;;;5018974;28;20056;-58
2023/07/21 07:33:23;;;;;;;3.47;2.17;;;18.00;99.90;;;;;;5035735;28;20041;-57
2023/07/21 07:35:52;;;;;;;3.53;2.30;;;18.00;99.90;;;;;;4992183;28;20037;-57
2023/07/21 07:38:28;;;;;;;3.03;1.98;;;18.00;99.90;;;;;;4997514;28;20060;-58
2023/07/21 07:41:03;;;;;;;3.65;2.20;;;18.10;99.90;;;;;;5024612;28;20116;-59
2023/07/21 07:43:29;;;;;;;4.63;1.92;;;18.30;99.90;;;;;;5018679;28;20499;-58
2023/07/21 07:45:57;;;;;;;3.13;2.35;;;18.40;99.90;;;;;;5010925;28;20055;-56
2023/07/21 07:48:23;;;;;;;3.88;2.35;;;18.40;99.90;;;;;;5011555;28;20072;-55
2023/07/21 07:50:51;;;;;;;2.85;2.30;;;18.50;99.90;;;;;;5013644;28;20080;-57
2023/07/21 07:53:17;;;;;;;4.68;2.20;;;18.60;99.90;;;;;;5004317;28;20496;-58
2023/07/21 07:55:44;;;;;;;2.58;1.83;;;18.70;99.90;;;;;;5021919;28;20086;-56
2023/07/21 07:58:10;;;;;;;2.72;1.70;;;18.90;99.90;;;;;;5009368;28;20492;-58
2023/07/21 08:00:38;;;;;;;3.38;1.30;;;19.10;99.90;;;;;;5037902;28;20045;-58
2023/07/21 08:03:11;;;;;;;2.83;1.80;;;19.10;99.90;;;;;;5023791;28;20049;-58
2023/07/21 08:05:39;;;;;;;2.50;1.40;;;19.20;99.90;;;;;;5023131;28;20071;-57
2023/07/21 08:08:06;;;;;;;2.72;1.60;;;19.20;99.90;;;;;;5026496;28;20079;-58
2023/07/21 08:10:33;;;;;;;1.80;1.00;;;19.20;99.90;;;;;;5028514;28;20044;-58
2023/07/21 08:13:01;;;;;;;1.25;0.90;;;19.30;99.90;;;;;;5016786;28;20056;-58
2023/07/21 08:15:26;;;;;;;3.20;1.42;;;19.50;99.90;;;;;;5026771;28;20128;-58
2023/07/21 08:18:24;;;;;;;2.22;1.60;;;19.40;99.80;;;;;;5015918;28;20485;-58
2023/07/21 08:20:54;;;;;;;2.90;1.90;;;19.20;99.90;;;;;;5021961;28;20627;-58
2023/07/21 08:23:19;;;;;;;3.38;1.83;;;19.10;99.90;;;;;;5021657;28;20460;-58
2023/07/21 08:25:45;;;;;;;2.30;1.60;;;19.00;99.90;;;;;;5005090;28;20048;-57
2023/07/21 08:28:11;;;;;;;2.88;1.60;;;19.10;99.90;;;;;;5011032;28;20072;-58
2023/07/21 08:30:36;;;;;;;3.17;2.05;;;19.20;99.90;;;;;;5016020;28;20492;-57
2023/07/21 08:33:02;;;;;;;2.83;1.95;;;19.20;99.90;;;;;;5023264;28;20128;-58
2023/07/21 08:35:28;;;;;;;3.17;2.53;;;19.20;99.90;;;;;;5024513;28;20048;-58
2023/07/21 08:37:56;;;;;;;4.68;2.58;;;19.00;99.90;;;;;;5020297;28;20068;-58
2023/07/21 08:40:22;;;;;;;3.85;2.72;;;18.80;99.90;;;;;;5033913;28;20592;-58
2023/07/21 08:42:50;;;;;;;4.57;2.78;;;18.80;99.90;;;;;;5017632;28;20068;-58
2023/07/21 08:45:16;;;;;;;3.30;2.35;;;18.90;99.90;;;;;;5007334;28;20045;-58
2023/07/21 08:47:41;;;;;;;6.40;2.53;;;19.00;99.90;;;;;;5022883;28;20052;-58
2023/07/21 08:50:07;;;;;;;3.88;2.35;;;19.10;99.90;;;;;;5024922;28;20139;-55
2023/07/21 08:52:33;;;;;;;3.38;2.40;;;19.20;99.90;;;;;;5020529;28;20037;-58
2023/07/21 08:55:02;;;;;;;3.35;2.25;;;19.20;99.90;;;;;;5022109;28;20159;-57
2023/07/21 08:57:28;;;;;;;2.60;1.77;;;19.20;99.90;;;;;;5007335;28;20502;-57
2023/07/21 08:59:55;;;;;;;4.03;2.17;;;19.20;99.90;;;;;;5053628;28;20064;-55
2023/07/21 09:02:47;;;;;;;3.13;1.80;;;19.30;99.90;;;;;;5024787;28;20057;-56
2023/07/21 09:05:17;;;;;;;3.63;1.80;;;19.40;99.90;;;;;;5003459;28;20103;-57
2023/07/21 09:07:45;;;;;;;3.13;1.95;;;19.40;99.90;;;;;;5020702;28;20056;-57
2023/07/21 09:10:12;;;;;;;2.65;1.80;;;19.40;99.80;;;;;;5037079;28;20053;-57
2023/07/21 09:12:38;;;;;;;4.90;3.20;;;19.40;99.70;;;;;;5016122;28;20111;-57
2023/07/21 09:15:08;;;;;;;4.38;2.67;;;19.30;99.80;;;;;;5022494;28;20037;-57
2023/07/21 09:17:35;;;;;;;5.50;2.90;;;19.20;99.90;;;;;;5022596;28;20061;-57
2023/07/21 09:20:07;;;;;;;4.65;3.25;;;19.20;99.90;;;;;;5021973;28;20036;-57
2023/07/21 09:22:32;;;;;;;5.10;3.67;;;19.10;99.90;;;;;;5008961;28;20037;-58
2023/07/21 09:24:58;;;;;;;4.30;2.88;;;19.00;99.90;;;;;;5041675;28;20041;-57
2023/07/21 09:27:24;;;;;;;3.78;3.15;;;19.00;99.90;;;;;;5019817;28;20074;-58
2023/07/21 09:29:59;;;;;;;6.43;3.45;;;19.00;99.90;;;;;;5005303;28;20121;-57
2023/07/21 09:32:24;;;;;;;4.70;3.15;;;18.80;99.90;;;;;;5021652;28;20077;-58
2023/07/21 09:35:01;;;;;;;4.75;3.75;;;18.80;99.90;;;;;;5011139;28;20084;-57
2023/07/21 09:37:29;;;;;;;6.35;4.38;;;18.70;99.90;;;;;;5035444;28;20048;-58
2023/07/21 09:39:57;;;;;;;5.50;4.25;;;18.80;99.90;;;;;;5025097;28;20037;-58
2023/07/21 09:42:25;;;;;;;6.88;4.60;;;18.80;99.90;;;;;;5022705;28;20506;-57
2023/07/21 09:44:52;;;;;;;4.95;3.85;;;18.90;99.90;;;;;;5007202;28;20049;-58
2023/07/21 09:47:19;;;;;;;5.53;4.25;;;19.00;99.90;;;;;;5024289;28;20502;-57
2023/07/21 09:49:45;;;;;;;6.32;5.07;;;19.00;99.90;;;;;;5020697;28;20037;-58
2023/07/21 09:52:17;;;;;;;8.65;4.85;;;19.00;99.90;;;;;;5022851;28;20043;-57
2023/07/21 09:54:54;;;;;;;6.97;4.05;;;19.10;99.90;;;;;;5020399;28;20432;-57
2023/07/21 09:57:23;;;;;;;4.70;3.65;;;19.10;99.90;;;;;;5020349;28;21493;-58
2023/07/21 09:59:50;;;;;;;5.72;4.50;;;19.40;99.90;;;;;;5020952;28;20049;-58
2023/07/21 10:02:21;;;;;;;4.47;3.67;;;19.40;99.90;;;;;;5036534;28;20228;-58
2023/07/21 10:04:47;;;;;;;5.03;3.85;;;19.50;99.90;;;;;;5019145;28;20100;-57
2023/07/21 10:07:13;;;;;;;5.70;3.42;;;19.70;99.90;;;;;;5020923;28;20057;-56
2023/07/21 10:09:40;;;;;;;7.03;4.00;;;19.90;99.90;;;;;;5023002;28;20532;-58
2023/07/21 10:12:18;;;;;;;3.72;3.10;;;19.90;99.60;;;;;;5026223;28;20142;-57
2023/07/21 10:14:47;;;;;;;3.30;2.50;;;19.90;99.90;;;;;;5020595;28;20076;-57
2023/07/21 10:17:23;;;;;;;3.05;2.42;;;20.20;99.90;;;;;;5035951;23;20053;-57
2023/07/21 10:20:07;;;;;;;4.55;1.88;;;20.50;99.90;;;;;;5037341;28;20044;-56
2023/07/21 10:22:33;;;;;;;2.67;1.73;;;20.80;98.90;;;;;;5034117;28;20037;-56
2023/07/21 10:24:59;;;;;;;2.75;2.05;;;21.00;98.50;;;;;;4998203;28;20392;-56
2023/07/21 10:27:27;;;;;;;3.25;2.08;;;21.00;97.90;;;;;;5034581;28;20553;-56
2023/07/21 10:29:56;;;;;;;3.25;2.00;;;21.00;97.30;;;;;;5033533;28;20028;-56
2023/07/21 10:32:24;;;;;;;2.85;1.83;;;20.70;97.10;;;;;;5022405;28;20044;-57
2023/07/21 10:34:51;;;;;;;3.10;2.08;;;20.90;97.40;;;;;;5032561;28;20049;-56
2023/07/21 10:37:17;;;;;;;3.95;2.05;;;20.80;96.00;;;;;;5033929;28;20045;-57
2023/07/21 10:39:53;;;;;;;4.15;2.08;;;20.80;96.30;;;;;;5016583;28;20040;-56
2023/07/21 10:42:19;;;;;;;3.25;1.95;;;20.80;96.40;;;;;;5022862;28;20053;-56
2023/07/21 10:44:47;;;;;;;2.80;1.85;;;20.90;96.60;;;;;;5023918;28;20056;-56
2023/07/21 10:47:17;;;;;;;3.50;1.80;;;21.00;96.60;;;;;;5034378;28;20398;-56
2023/07/21 10:49:43;;;;;;;2.70;1.80;;;21.20;96.30;;;;;;5042361;28;20056;-56
2023/07/21 10:52:12;;;;;;;3.28;2.40;;;21.20;95.60;;;;;;5024616;28;20032;-57
2023/07/21 10:54:39;;;;;;;3.15;2.08;;;21.00;95.70;;;;;;5024831;28;20041;-55
2023/07/21 10:57:07;;;;;;;2.30;1.88;;;20.80;95.90;;;;;;5021977;28;20112;-57
2023/07/21 10:59:35;;;;;;;3.47;2.17;;;20.50;95.60;;;;;;5020989;28;20083;-56
2023/07/21 11:02:03;;;;;;;3.38;2.10;;;20.40;96.20;;;;;;5037803;28;20037;-57
2023/07/21 11:04:30;;;;;;;3.90;2.30;;;20.40;96.40;;;;;;5023362;28;20056;-56
2023/07/21 11:06:57;;;;;;;4.43;1.75;;;20.40;96.20;;;;;;5017794;28;20080;-56
2023/07/21 11:09:24;;;;;;;4.07;2.65;;;20.40;96.30;;;;;;5023037;28;20414;-56
2023/07/21 11:11:54;;;;;;;3.97;2.50;;;20.30;97.00;;;;;;5013509;28;20073;-55
2023/07/21 11:14:25;;;;;;;4.05;2.83;;;20.30;97.50;;;;;;5047527;28;20080;-56
2023/07/21 11:17:02;;;;;;;3.53;2.47;;;20.10;97.90;;;;;;5051066;28;20450;-57
2023/07/21 11:19:31;;;;;;;3.72;2.90;;;20.20;98.40;;;;;;5027572;28;20155;-56
2023/07/21 11:21:57;;;;;;;4.20;3.42;;;20.20;98.50;;;;;;5029870;28;20132;-55
2023/07/21 11:24:33;;;;;;;5.72;3.15;;;20.10;98.00;;;;;;5049617;28;20045;-56
2023/07/21 11:27:06;;;;;;;4.97;3.42;;;20.00;98.50;;;;;;5013314;28;20079;-56
2023/07/21 11:29:34;;;;;;;5.60;3.55;;;19.90;98.20;;;;;;5013035;28;20084;-56
2023/07/21 11:32:00;;;;;;;5.25;3.70;;;19.90;98.30;;;;;;5034245;28;20041;-55
2023/07/21 11:34:31;;;;;;;5.25;4.18;;;20.00;98.10;;;;;;5015717;28;20049;-57
2023/07/21 11:36:58;;;;;;;6.75;3.78;;;20.40;98.60;;;;;;5030468;28;20609;-56
2023/07/21 11:39:27;;;;;;;7.15;3.60;;;20.40;99.90;;;;;;5020770;28;20039;-57
2023/07/21 11:41:57;;;;;;;8.07;3.47;;;20.40;99.90;;;;;;5025021;28;20044;-54
2023/07/21 11:44:35;;;;;;;7.32;3.30;;;20.10;99.90;;;;;;5032123;28;20053;-57
2023/07/21 11:47:07;;;;;;;8.65;3.47;;;19.90;99.90;;;;;;5047718;28;20543;-57
2023/07/21 11:49:41;;;;;;;8.20;3.30;;;19.60;99.90;;;;;;5010844;28;20037;-55
2023/07/21 11:52:08;;;;;;;7.47;3.20;;;19.40;99.90;;;;;;5033112;28;20116;-55
2023/07/21 11:54:40;;;;;;;7.80;3.58;;;19.00;99.90;;;;;;5047263;28;20400;-55
2023/07/21 11:57:06;;;;;;;7.00;3.70;;;18.80;99.90;;;;;;5016868;28;20075;-58
2023/07/21 11:59:32;;;;;;;6.68;3.03;;;18.60;99.90;;;;;;5029126;28;20576;-56
2023/07/21 12:01:58;;;;;;;11.43;3.15;;;18.40;99.90;;;;;;5032465;28;20499;-54
2023/07/21 12:04:25;;;;;;;7.45;4.00;;;18.30;99.90;;;;;;5035661;28;20041;-54
2023/07/21 12:06:51;;;;;;;9.55;4.13;;;18.10;99.90;;;;;;5020545;28;20041;-55
2023/07/21 12:09:19;;;;;;;11.38;4.15;;;18.00;99.90;;;;;;5024058;28;20102;-55
2023/07/21 12:11:46;;;;;;;8.98;5.40;;;17.80;99.90;;;;;;5026780;28;20044;-55
2023/07/21 12:14:11;;;;;;;10.52;5.13;;;17.60;99.90;;;;;;5048622;28;20063;-58
2023/07/21 12:16:38;;;;;;;7.03;4.15;;;17.30;99.90;;;;;;5046490;28;20048;-55
2023/07/21 12:19:04;;;;;;;7.35;4.22;;;17.10;99.90;;;;;;5027011;28;20144;-51
2023/07/21 12:21:31;;;;;;;8.85;3.83;;;17.00;99.90;;;;;;5014168;28;20387;-55
2023/07/21 12:23:57;;;;;;;5.30;3.08;;;16.80;99.90;;;;;;5029537;28;20049;-52
2023/07/21 12:26:23;;;;;;;5.97;2.85;;;16.50;99.90;;;;;;5029122;28;20102;-54
2023/07/21 12:28:50;;;;;;;5.13;2.50;;;16.40;99.90;;;;;;5022357;28;20511;-56
2023/07/21 12:31:19;;;;;;;5.10;2.78;;;16.50;99.90;;;;;;5029498;28;20372;-56
2023/07/21 12:33:47;;;;;;;4.05;1.95;;;16.60;99.90;;;;;;5025966;28;20124;-56
2023/07/21 12:36:18;;;;;;;5.97;2.55;;;16.70;99.90;;;;;;5038079;28;20036;-56
2023/07/21 12:38:47;;;;;;;3.97;2.22;;;16.80;99.90;;;;;;5052896;28;20125;-54
2023/07/21 12:41:14;;;;;;;4.60;2.67;;;16.90;99.90;;;;;;5013312;28;20052;-57
2023/07/21 12:43:40;;;;;;;4.63;2.63;;;17.00;99.90;;;;;;5046095;28;20033;-57
2023/07/21 12:46:06;;;;;;;2.92;2.30;;;17.10;99.90;;;;;;5022312;28;20033;-56
2023/07/21 12:48:33;;;;;;;5.57;2.53;;;17.10;99.90;;;;;;5028933;28;20098;-56
2023/07/21 12:51:01;;;;;;;4.13;2.20;;;17.10;99.90;;;;;;5039649;28;20173;-56